sensor_id;sensor_type;location;lat;lon;timestamp;pressure;altitude;pressure_sealevel;temperature;humidity
45285;BME280;31026;43.780;25.948;2023-05-01T00:00:28;100807.09;;;19.40;60.36
45285;BME280;31026;43.780;25.948;2023-05-01T00:02:56;100796.75;;;19.35;60.64
45285;BME280;31026;43.780;25.948;2023-05-01T00:05:27;100807.09;;;19.40;60.62
45285;BME280;31026;43.780;25.948;2023-05-01T00:07:55;100794.69;;;19.48;60.29
45285;BME280;31026;43.780;25.948;2023-05-01T00:10:23;100790.16;;;19.49;60.51
45285;BME280;31026;43.780;25.948;2023-05-01T00:12:52;100803.72;;;19.57;60.22
45285;BME280;31026;43.780;25.948;2023-05-01T00:15:21;100797.81;;;19.54;60.20
45285;BME280;31026;43.780;25.948;2023-05-01T00:17:50;100815.13;;;19.50;60.29
45285;BME280;31026;43.780;25.948;2023-05-01T00:20:24;100816.84;;;19.51;60.13
45285;BME280;31026;43.780;25.948;2023-05-01T00:22:55;100807.25;;;19.48;60.34
45285;BME280;31026;43.780;25.948;2023-05-01T00:25:24;100817.53;;;19.43;60.50
45285;BME280;31026;43.780;25.948;2023-05-01T00:27:52;100825.69;;;19.41;60.37
45285;BME280;31026;43.780;25.948;2023-05-01T00:30:24;100818.91;;;19.37;61.03
45285;BME280;31026;43.780;25.948;2023-05-01T00:32:52;100812.00;;;19.35;60.74
45285;BME280;31026;43.780;25.948;2023-05-01T00:35:21;100800.47;;;19.44;60.46
45285;BME280;31026;43.780;25.948;2023-05-01T00:37:49;100822.06;;;19.52;60.48
45285;BME280;31026;43.780;25.948;2023-05-01T00:40:20;100807.66;;;19.53;60.54
45285;BME280;31026;43.780;25.948;2023-05-01T00:42:48;100812.44;;;19.50;60.67
45285;BME280;31026;43.780;25.948;2023-05-01T00:45:17;100826.31;;;19.55;60.85
45285;BME280;31026;43.780;25.948;2023-05-01T00:47:45;100818.38;;;19.53;60.56
45285;BME280;31026;43.780;25.948;2023-05-01T00:50:13;100827.72;;;19.59;60.96
45285;BME280;31026;43.780;25.948;2023-05-01T00:52:42;100802.84;;;19.47;61.34
45285;BME280;31026;43.780;25.948;2023-05-01T00:55:10;100815.25;;;19.38;61.45
45285;BME280;31026;43.780;25.948;2023-05-01T00:57:41;100836.03;;;19.46;61.46
45285;BME280;31026;43.780;25.948;2023-05-01T01:00:10;100819.25;;;19.54;61.20
45285;BME280;31026;43.780;25.948;2023-05-01T01:02:41;100826.31;;;19.55;61.21
45285;BME280;31026;43.780;25.948;2023-05-01T01:05:09;100841.75;;;19.32;61.85
45285;BME280;31026;43.780;25.948;2023-05-01T01:07:39;100845.47;;;19.40;61.64
45285;BME280;31026;43.780;25.948;2023-05-01T01:10:10;100851.44;;;19.54;61.41
45285;BME280;31026;43.780;25.948;2023-05-01T01:12:48;100837.84;;;19.45;61.68
45285;BME280;31026;43.780;25.948;2023-05-01T01:15:22;100854.19;;;19.33;61.72
45285;BME280;31026;43.780;25.948;2023-05-01T01:17:56;100863.69;;;19.46;61.56
45285;BME280;31026;43.780;25.948;2023-05-01T01:20:30;100855.22;;;19.51;61.26
45285;BME280;31026;43.780;25.948;2023-05-01T01:28:44;100848.03;;;19.42;61.36
45285;BME280;31026;43.780;25.948;2023-05-01T01:31:26;100854.31;;;19.31;62.10
45285;BME280;31026;43.780;25.948;2023-05-01T01:34:03;100856.47;;;19.37;61.75
45285;BME280;31026;43.780;25.948;2023-05-01T01:36:39;100867.22;;;19.47;61.31
45285;BME280;31026;43.780;25.948;2023-05-01T01:39:09;100870.63;;;19.49;61.30
45285;BME280;31026;43.780;25.948;2023-05-01T01:41:38;100869.78;;;19.48;61.10
45285;BME280;31026;43.780;25.948;2023-05-01T01:44:08;100874.44;;;19.16;62.78
45285;BME280;31026;43.780;25.948;2023-05-01T01:46:39;100867.94;;;19.49;62.17
45285;BME280;31026;43.780;25.948;2023-05-01T01:49:14;100859.88;;;20.19;60.38
45285;BME280;31026;43.780;25.948;2023-05-01T01:51:44;100872.34;;;20.59;59.13
45285;BME280;31026;43.780;25.948;2023-05-01T01:54:13;100871.91;;;20.34;59.90
45285;BME280;31026;43.780;25.948;2023-05-01T01:56:46;100877.28;;;20.24;60.25
45285;BME280;31026;43.780;25.948;2023-05-01T01:59:15;100879.25;;;20.42;60.33
45285;BME280;31026;43.780;25.948;2023-05-01T02:01:44;100883.63;;;20.53;59.71
45285;BME280;31026;43.780;25.948;2023-05-01T02:04:15;100884.78;;;20.50;59.84
45285;BME280;31026;43.780;25.948;2023-05-01T02:06:45;100897.63;;;20.56;59.56
45285;BME280;31026;43.780;25.948;2023-05-01T02:09:14;100904.00;;;20.55;59.62
45285;BME280;31026;43.780;25.948;2023-05-01T02:11:44;100907.69;;;20.64;59.72
45285;BME280;31026;43.780;25.948;2023-05-01T02:14:13;100903.31;;;20.63;59.59
45285;BME280;31026;43.780;25.948;2023-05-01T02:16:42;100922.50;;;20.58;59.81
45285;BME280;31026;43.780;25.948;2023-05-01T02:19:12;100917.13;;;20.58;59.82
45285;BME280;31026;43.780;25.948;2023-05-01T02:21:44;100906.16;;;20.61;59.67
45285;BME280;31026;43.780;25.948;2023-05-01T02:24:13;100909.81;;;20.60;59.77
45285;BME280;31026;43.780;25.948;2023-05-01T02:26:42;100910.25;;;20.65;59.77
45285;BME280;31026;43.780;25.948;2023-05-01T02:29:11;100893.69;;;20.80;59.47
45285;BME280;31026;43.780;25.948;2023-05-01T02:31:39;100912.50;;;20.80;59.55
45285;BME280;31026;43.780;25.948;2023-05-01T02:34:07;100911.66;;;20.79;59.50
45285;BME280;31026;43.780;25.948;2023-05-01T02:36:36;100909.09;;;20.78;59.34
45285;BME280;31026;43.780;25.948;2023-05-01T02:39:07;100924.09;;;20.80;59.49
45285;BME280;31026;43.780;25.948;2023-05-01T02:41:35;100921.53;;;20.79;59.60
45285;BME280;31026;43.780;25.948;2023-05-01T02:44:04;100925.09;;;20.79;59.61
45285;BME280;31026;43.780;25.948;2023-05-01T02:46:35;100924.22;;;20.79;59.53
45285;BME280;31026;43.780;25.948;2023-05-01T02:49:04;100922.81;;;20.75;59.49
45285;BME280;31026;43.780;25.948;2023-05-01T02:51:33;100929.31;;;20.82;59.39
45285;BME280;31026;43.780;25.948;2023-05-01T02:54:02;100929.59;;;20.79;59.31
45285;BME280;31026;43.780;25.948;2023-05-01T02:56:33;100940.91;;;20.82;59.25
45285;BME280;31026;43.780;25.948;2023-05-01T02:59:02;100938.09;;;20.84;59.31
45285;BME280;31026;43.780;25.948;2023-05-01T03:01:30;100933.41;;;20.86;59.27
45285;BME280;31026;43.780;25.948;2023-05-01T03:03:58;100936.38;;;20.83;59.47
45285;BME280;31026;43.780;25.948;2023-05-01T03:06:27;100937.81;;;20.87;59.44
45285;BME280;31026;43.780;25.948;2023-05-01T03:08:55;100937.81;;;20.87;59.42
45285;BME280;31026;43.780;25.948;2023-05-01T03:11:24;100931.56;;;20.86;59.25
45285;BME280;31026;43.780;25.948;2023-05-01T03:13:55;100938.78;;;20.86;59.27
45285;BME280;31026;43.780;25.948;2023-05-01T03:16:23;100907.81;;;20.92;59.07
45285;BME280;31026;43.780;25.948;2023-05-01T03:18:51;100922.78;;;20.84;59.32
45285;BME280;31026;43.780;25.948;2023-05-01T03:21:20;100934.97;;;20.89;59.18
45285;BME280;31026;43.780;25.948;2023-05-01T03:23:48;100954.19;;;20.94;59.26
45285;BME280;31026;43.780;25.948;2023-05-01T03:26:16;100957.03;;;20.92;59.25
45285;BME280;31026;43.780;25.948;2023-05-01T03:28:44;100942.88;;;20.90;59.42
45285;BME280;31026;43.780;25.948;2023-05-01T03:31:15;100951.97;;;20.89;59.40
45285;BME280;31026;43.780;25.948;2023-05-01T03:33:44;100953.50;;;20.92;59.41
45285;BME280;31026;43.780;25.948;2023-05-01T03:36:12;100959.13;;;20.98;59.33
45285;BME280;31026;43.780;25.948;2023-05-01T03:38:40;100970.59;;;21.00;59.33
45285;BME280;31026;43.780;25.948;2023-05-01T03:41:08;100961.97;;;20.97;59.39
45285;BME280;31026;43.780;25.948;2023-05-01T03:43:37;100976.28;;;20.97;59.29
45285;BME280;31026;43.780;25.948;2023-05-01T03:46:05;100973.41;;;20.99;59.35
45285;BME280;31026;43.780;25.948;2023-05-01T03:48:36;100980.50;;;21.00;59.34
45285;BME280;31026;43.780;25.948;2023-05-01T03:51:04;100984.91;;;21.01;59.10
45285;BME280;31026;43.780;25.948;2023-05-01T03:53:33;100989.41;;;21.00;59.40
45285;BME280;31026;43.780;25.948;2023-05-01T03:56:01;100975.69;;;21.03;59.31
45285;BME280;31026;43.780;25.948;2023-05-01T03:58:30;100989.84;;;21.05;59.25
45285;BME280;31026;43.780;25.948;2023-05-01T04:00:58;100990.69;;;20.77;60.10
45285;BME280;31026;43.780;25.948;2023-05-01T04:03:27;100987.31;;;20.75;59.89
45285;BME280;31026;43.780;25.948;2023-05-01T04:05:58;100992.13;;;20.81;59.56
45285;BME280;31026;43.780;25.948;2023-05-01T04:08:27;100991.13;;;20.62;59.92
45285;BME280;31026;43.780;25.948;2023-05-01T04:10:55;100993.94;;;20.41;60.38
45285;BME280;31026;43.780;25.948;2023-05-01T04:13:23;100994.28;;;20.17;61.26
45285;BME280;31026;43.780;25.948;2023-05-01T04:15:52;100985.78;;;20.02;61.44
45285;BME280;31026;43.780;25.948;2023-05-01T04:18:23;100992.81;;;19.94;61.50
45285;BME280;31026;43.780;25.948;2023-05-01T04:20:51;100999.47;;;20.09;61.49
45285;BME280;31026;43.780;25.948;2023-05-01T04:23:22;100999.44;;;20.50;60.16
45285;BME280;31026;43.780;25.948;2023-05-01T04:25:50;101017.69;;;20.56;60.00
45285;BME280;31026;43.780;25.948;2023-05-01T04:28:19;101013.56;;;20.42;60.38
45285;BME280;31026;43.780;25.948;2023-05-01T04:30:47;101013.41;;;20.34;60.75
45285;BME280;31026;43.780;25.948;2023-05-01T04:33:15;101032.78;;;20.37;60.57
45285;BME280;31026;43.780;25.948;2023-05-01T04:35:44;101020.91;;;20.40;60.47
45285;BME280;31026;43.780;25.948;2023-05-01T04:38:12;101023.16;;;20.35;60.49
45285;BME280;31026;43.780;25.948;2023-05-01T04:40:43;101025.22;;;20.62;60.09
45285;BME280;31026;43.780;25.948;2023-05-01T04:43:12;101021.28;;;20.76;59.99
45285;BME280;31026;43.780;25.948;2023-05-01T04:45:40;101022.56;;;20.91;59.44
45285;BME280;31026;43.780;25.948;2023-05-01T04:48:08;101029.75;;;21.20;58.60
45285;BME280;31026;43.780;25.948;2023-05-01T04:50:37;101042.91;;;21.03;58.72
45285;BME280;31026;43.780;25.948;2023-05-01T04:53:05;101032.56;;;21.09;58.73
45285;BME280;31026;43.780;25.948;2023-05-01T04:55:34;101040.63;;;20.99;58.72
45285;BME280;31026;43.780;25.948;2023-05-01T04:58:05;101037.97;;;20.89;59.25
45285;BME280;31026;43.780;25.948;2023-05-01T05:00:33;101043.91;;;20.63;60.15
45285;BME280;31026;43.780;25.948;2023-05-01T05:03:01;101051.56;;;20.27;60.91
45285;BME280;31026;43.780;25.948;2023-05-01T05:05:29;101051.13;;;20.22;61.20
45285;BME280;31026;43.780;25.948;2023-05-01T05:07:58;101042.56;;;20.48;60.47
45285;BME280;31026;43.780;25.948;2023-05-01T05:10:27;101035.06;;;20.42;60.72
45285;BME280;31026;43.780;25.948;2023-05-01T05:12:56;101039.44;;;20.43;60.78
45285;BME280;31026;43.780;25.948;2023-05-01T05:15:27;101026.00;;;20.43;60.44
45285;BME280;31026;43.780;25.948;2023-05-01T05:17:55;101028.41;;;20.36;60.64
45285;BME280;31026;43.780;25.948;2023-05-01T05:20:23;101051.28;;;20.31;61.06
45285;BME280;31026;43.780;25.948;2023-05-01T05:22:52;101036.44;;;20.26;60.98
45285;BME280;31026;43.780;25.948;2023-05-01T05:25:20;101049.06;;;20.05;61.73
45285;BME280;31026;43.780;25.948;2023-05-01T05:27:48;101043.47;;;19.87;61.95
45285;BME280;31026;43.780;25.948;2023-05-01T05:30:17;101045.63;;;19.93;62.21
45285;BME280;31026;43.780;25.948;2023-05-01T05:32:48;101053.06;;;19.80;62.74
45285;BME280;31026;43.780;25.948;2023-05-01T05:35:16;101047.34;;;19.94;62.46
45285;BME280;31026;43.780;25.948;2023-05-01T05:37:44;101067.22;;;20.22;61.84
45285;BME280;31026;43.780;25.948;2023-05-01T05:40:13;101068.41;;;20.30;61.48
45285;BME280;31026;43.780;25.948;2023-05-01T05:42:41;101067.16;;;20.03;62.26
45285;BME280;31026;43.780;25.948;2023-05-01T05:45:09;101083.00;;;20.06;60.99
45285;BME280;31026;43.780;25.948;2023-05-01T05:47:38;101063.41;;;19.84;62.18
45285;BME280;31026;43.780;25.948;2023-05-01T05:50:09;101084.34;;;19.91;62.51
45285;BME280;31026;43.780;25.948;2023-05-01T05:52:37;101087.16;;;19.68;63.30
45285;BME280;31026;43.780;25.948;2023-05-01T05:55:06;101098.22;;;19.75;63.15
45285;BME280;31026;43.780;25.948;2023-05-01T05:57:34;101098.41;;;19.83;62.98
45285;BME280;31026;43.780;25.948;2023-05-01T06:00:03;101103.72;;;19.73;63.31
45285;BME280;31026;43.780;25.948;2023-05-01T06:02:33;101094.75;;;19.84;63.23
45285;BME280;31026;43.780;25.948;2023-05-01T06:05:01;101098.16;;;19.86;63.19
45285;BME280;31026;43.780;25.948;2023-05-01T06:07:32;101096.75;;;20.22;62.51
45285;BME280;31026;43.780;25.948;2023-05-01T06:10:01;101103.44;;;20.28;62.63
45285;BME280;31026;43.780;25.948;2023-05-01T06:12:31;101101.25;;;20.12;62.80
45285;BME280;31026;43.780;25.948;2023-05-01T06:14:59;101130.84;;;20.01;63.48
45285;BME280;31026;43.780;25.948;2023-05-01T06:17:28;101118.69;;;19.97;62.93
45285;BME280;31026;43.780;25.948;2023-05-01T06:19:56;101126.50;;;20.00;63.76
45285;BME280;31026;43.780;25.948;2023-05-01T06:22:24;101128.81;;;20.14;62.96
45285;BME280;31026;43.780;25.948;2023-05-01T06:24:55;101135.78;;;19.96;63.47
45285;BME280;31026;43.780;25.948;2023-05-01T06:27:23;101147.50;;;19.95;63.25
45285;BME280;31026;43.780;25.948;2023-05-01T06:29:52;101157.66;;;19.91;63.92
45285;BME280;31026;43.780;25.948;2023-05-01T06:32:20;101158.31;;;19.83;62.78
45285;BME280;31026;43.780;25.948;2023-05-01T06:34:48;101157.66;;;19.91;62.64
45285;BME280;31026;43.780;25.948;2023-05-01T06:37:16;101165.69;;;20.12;61.84
45285;BME280;31026;43.780;25.948;2023-05-01T06:39:46;101162.94;;;20.23;61.62
45285;BME280;31026;43.780;25.948;2023-05-01T06:42:17;101189.56;;;20.15;61.73
45285;BME280;31026;43.780;25.948;2023-05-01T06:44:45;101174.00;;;20.09;61.85
45285;BME280;31026;43.780;25.948;2023-05-01T06:47:14;101179.53;;;20.08;62.03
45285;BME280;31026;43.780;25.948;2023-05-01T06:49:42;101168.25;;;19.93;62.41
45285;BME280;31026;43.780;25.948;2023-05-01T06:52:10;101159.75;;;19.88;62.25
45285;BME280;31026;43.780;25.948;2023-05-01T06:54:38;101182.94;;;19.89;62.44
45285;BME280;31026;43.780;25.948;2023-05-01T06:57:07;101182.94;;;19.89;62.17
45285;BME280;31026;43.780;25.948;2023-05-01T06:59:37;101192.22;;;20.05;61.68
45285;BME280;31026;43.780;25.948;2023-05-01T07:02:06;101195.69;;;19.96;61.83
45285;BME280;31026;43.780;25.948;2023-05-01T07:04:34;101185.84;;;20.06;61.60
45285;BME280;31026;43.780;25.948;2023-05-01T07:07:03;101184.31;;;20.04;61.29
45285;BME280;31026;43.780;25.948;2023-05-01T07:09:31;101201.19;;;19.95;61.56
45285;BME280;31026;43.780;25.948;2023-05-01T07:12:00;101200.75;;;19.90;61.90
45285;BME280;31026;43.780;25.948;2023-05-01T07:14:28;101199.63;;;19.92;61.83
45285;BME280;31026;43.780;25.948;2023-05-01T07:16:59;101198.06;;;19.90;61.72
45285;BME280;31026;43.780;25.948;2023-05-01T07:19:27;101197.00;;;19.81;61.66
45285;BME280;31026;43.780;25.948;2023-05-01T07:21:55;101212.56;;;19.87;61.56
45285;BME280;31026;43.780;25.948;2023-05-01T07:24:24;101207.47;;;19.84;61.43
45285;BME280;31026;43.780;25.948;2023-05-01T07:26:52;101197.34;;;19.88;61.12
45285;BME280;31026;43.780;25.948;2023-05-01T07:29:20;101213.69;;;19.84;61.43
45285;BME280;31026;43.780;25.948;2023-05-01T07:31:49;101209.44;;;19.82;61.15
45285;BME280;31026;43.780;25.948;2023-05-01T07:34:19;101210.75;;;19.88;61.22
45285;BME280;31026;43.780;25.948;2023-05-01T07:36:48;101208.47;;;20.04;60.49
45285;BME280;31026;43.780;25.948;2023-05-01T07:39:16;101211.03;;;20.05;60.55
45285;BME280;31026;43.780;25.948;2023-05-01T07:41:44;101208.91;;;20.09;60.31
45285;BME280;31026;43.780;25.948;2023-05-01T07:44:13;101204.25;;;20.11;60.30
45285;BME280;31026;43.780;25.948;2023-05-01T07:46:41;101220.34;;;20.11;60.34
45285;BME280;31026;43.780;25.948;2023-05-01T07:49:09;101218.84;;;19.97;60.47
45285;BME280;31026;43.780;25.948;2023-05-01T07:51:40;101234.41;;;19.94;60.42
45285;BME280;31026;43.780;25.948;2023-05-01T07:54:09;101235.56;;;20.22;59.80
45285;BME280;31026;43.780;25.948;2023-05-01T07:56:39;101234.56;;;20.23;59.67
45285;BME280;31026;43.780;25.948;2023-05-01T07:59:08;101233.41;;;20.16;59.64
45285;BME280;31026;43.780;25.948;2023-05-01T08:01:36;101202.28;;;20.13;59.80
45285;BME280;31026;43.780;25.948;2023-05-01T08:04:05;101221.06;;;20.13;58.91
45285;BME280;31026;43.780;25.948;2023-05-01T08:06:33;101232.28;;;20.18;58.91
45285;BME280;31026;43.780;25.948;2023-05-01T08:09:04;101230.38;;;20.09;58.34
45285;BME280;31026;43.780;25.948;2023-05-01T08:11:32;101241.31;;;20.17;58.17
45285;BME280;31026;43.780;25.948;2023-05-01T08:14:01;101233.16;;;19.98;58.06
45285;BME280;31026;43.780;25.948;2023-05-01T08:16:29;101251.75;;;19.90;58.27
45285;BME280;31026;43.780;25.948;2023-05-01T08:18:57;101250.28;;;20.06;58.30
45285;BME280;31026;43.780;25.948;2023-05-01T08:21:25;101246.03;;;20.04;57.92
45285;BME280;31026;43.780;25.948;2023-05-01T08:23:54;101235.69;;;20.20;57.44
45285;BME280;31026;43.780;25.948;2023-05-01T08:26:25;101258.81;;;20.12;57.38
45285;BME280;31026;43.780;25.948;2023-05-01T08:28:53;101246.97;;;20.14;57.28
45285;BME280;31026;43.780;25.948;2023-05-01T08:31:22;101249.78;;;20.13;56.96
45285;BME280;31026;43.780;25.948;2023-05-01T08:33:50;101246.97;;;20.14;56.60
45285;BME280;31026;43.780;25.948;2023-05-01T08:36:18;101245.00;;;20.16;56.75
45285;BME280;31026;43.780;25.948;2023-05-01T08:38:46;101247.38;;;20.10;56.64
45285;BME280;31026;43.780;25.948;2023-05-01T08:41:15;101243.03;;;20.18;56.46
45285;BME280;31026;43.780;25.948;2023-05-01T08:43:46;101242.13;;;20.08;56.09
45285;BME280;31026;43.780;25.948;2023-05-01T08:46:17;101250.41;;;20.05;56.12
45285;BME280;31026;43.780;25.948;2023-05-01T08:48:46;101244.13;;;19.95;55.02
45285;BME280;31026;43.780;25.948;2023-05-01T08:51:15;101251.88;;;19.88;55.68
45285;BME280;31026;43.780;25.948;2023-05-01T08:53:47;101244.19;;;19.83;55.85
45285;BME280;31026;43.780;25.948;2023-05-01T08:56:17;101253.94;;;19.84;55.80
45285;BME280;31026;43.780;25.948;2023-05-01T08:58:48;101240.44;;;19.75;56.26
45285;BME280;31026;43.780;25.948;2023-05-01T09:01:17;101231.31;;;19.66;56.17
45285;BME280;31026;43.780;25.948;2023-05-01T09:03:47;101234.59;;;19.70;55.94
45285;BME280;31026;43.780;25.948;2023-05-01T09:06:17;101240.34;;;19.65;56.01
45285;BME280;31026;43.780;25.948;2023-05-01T09:08:45;101247.00;;;19.82;56.35
45285;BME280;31026;43.780;25.948;2023-05-01T09:11:14;101245.06;;;20.05;55.76
45285;BME280;31026;43.780;25.948;2023-05-01T09:13:44;101238.88;;;19.93;55.60
45285;BME280;31026;43.780;25.948;2023-05-01T09:16:15;101231.63;;;20.05;55.12
45285;BME280;31026;43.780;25.948;2023-05-01T09:18:43;101229.94;;;20.04;55.10
45285;BME280;31026;43.780;25.948;2023-05-01T09:21:12;101245.56;;;19.99;55.22
45285;BME280;31026;43.780;25.948;2023-05-01T09:23:40;101234.63;;;19.91;55.31
45285;BME280;31026;43.780;25.948;2023-05-01T09:26:09;101246.13;;;19.81;56.06
45285;BME280;31026;43.780;25.948;2023-05-01T09:28:40;101233.28;;;19.64;56.15
45285;BME280;31026;43.780;25.948;2023-05-01T09:31:24;101247.78;;;19.61;56.17
45285;BME280;31026;43.780;25.948;2023-05-01T09:33:54;101237.66;;;19.65;56.43
45285;BME280;31026;43.780;25.948;2023-05-01T09:36:23;101235.09;;;19.63;56.03
45285;BME280;31026;43.780;25.948;2023-05-01T09:38:51;101245.22;;;19.71;55.87
45285;BME280;31026;43.780;25.948;2023-05-01T09:41:19;101238.13;;;19.70;56.00
45285;BME280;31026;43.780;25.948;2023-05-01T09:43:48;101253.22;;;19.82;56.06
45285;BME280;31026;43.780;25.948;2023-05-01T09:46:16;101241.78;;;19.80;55.55
45285;BME280;31026;43.780;25.948;2023-05-01T09:48:54;101252.31;;;19.72;55.30
45285;BME280;31026;43.780;25.948;2023-05-01T09:51:24;101248.09;;;19.79;55.35
45285;BME280;31026;43.780;25.948;2023-05-01T09:53:54;101241.56;;;19.72;55.40
45285;BME280;31026;43.780;25.948;2023-05-01T09:56:24;101239.94;;;19.81;54.96
45285;BME280;31026;43.780;25.948;2023-05-01T09:58:53;101229.31;;;19.79;55.47
45285;BME280;31026;43.780;25.948;2023-05-01T10:01:36;101232.88;;;19.80;53.90
45285;BME280;31026;43.780;25.948;2023-05-01T10:04:07;101233.00;;;19.67;54.62
45285;BME280;31026;43.780;25.948;2023-05-01T10:06:36;101242.28;;;19.74;53.23
45285;BME280;31026;43.780;25.948;2023-05-01T10:09:05;101224.81;;;19.80;52.80
45285;BME280;31026;43.780;25.948;2023-05-01T10:11:47;101236.28;;;19.82;53.88
45285;BME280;31026;43.780;25.948;2023-05-01T10:14:16;101222.47;;;19.86;54.77
45285;BME280;31026;43.780;25.948;2023-05-01T10:16:44;101215.31;;;19.97;55.16
45285;BME280;31026;43.780;25.948;2023-05-01T10:19:16;101230.00;;;19.93;55.04
45285;BME280;31026;43.780;25.948;2023-05-01T10:21:44;101227.91;;;19.96;55.14
45285;BME280;31026;43.780;25.948;2023-05-01T10:24:12;101229.13;;;20.13;55.08
45285;BME280;31026;43.780;25.948;2023-05-01T10:26:41;101224.38;;;19.96;55.54
45285;BME280;31026;43.780;25.948;2023-05-01T10:29:10;101225.34;;;19.95;55.84
45285;BME280;31026;43.780;25.948;2023-05-01T10:31:39;101219.66;;;19.88;56.23
45285;BME280;31026;43.780;25.948;2023-05-01T10:34:07;101231.56;;;19.95;56.27
45285;BME280;31026;43.780;25.948;2023-05-01T10:36:40;101219.78;;;19.86;56.55
45285;BME280;31026;43.780;25.948;2023-05-01T10:42:02;101212.56;;;19.87;56.88
45285;BME280;31026;43.780;25.948;2023-05-01T10:44:30;101232.34;;;19.86;57.13
45285;BME280;31026;43.780;25.948;2023-05-01T10:46:59;101228.22;;;20.03;56.43
45285;BME280;31026;43.780;25.948;2023-05-01T10:50:03;101223.91;;;19.91;56.95
45285;BME280;31026;43.780;25.948;2023-05-01T10:52:41;101208.06;;;19.88;57.05
45285;BME280;31026;43.780;25.948;2023-05-01T10:55:33;101212.91;;;19.94;57.48
45285;BME280;31026;43.780;25.948;2023-05-01T10:58:01;101220.63;;;20.08;56.91
45285;BME280;31026;43.780;25.948;2023-05-01T11:00:30;101212.72;;;20.06;56.62
45285;BME280;31026;43.780;25.948;2023-05-01T11:08:37;101219.06;;;19.84;57.77
45285;BME280;31026;43.780;25.948;2023-05-01T11:13:55;101226.13;;;19.85;58.04
45285;BME280;31026;43.780;25.948;2023-05-01T11:19:08;101218.81;;;19.88;57.79
45285;BME280;31026;43.780;25.948;2023-05-01T11:21:36;101230.03;;;19.81;58.29
45285;BME280;31026;43.780;25.948;2023-05-01T11:24:08;101224.44;;;19.84;58.32
45285;BME280;31026;43.780;25.948;2023-05-01T11:26:37;101212.13;;;19.82;58.63
45285;BME280;31026;43.780;25.948;2023-05-01T11:29:06;101214.09;;;19.80;58.70
45285;BME280;31026;43.780;25.948;2023-05-01T11:31:35;101213.28;;;19.89;58.35
45285;BME280;31026;43.780;25.948;2023-05-01T11:34:04;101209.84;;;19.98;58.05
45285;BME280;31026;43.780;25.948;2023-05-01T11:36:45;101211.47;;;19.90;58.40
45285;BME280;31026;43.780;25.948;2023-05-01T11:39:17;101208.44;;;19.83;58.42
45285;BME280;31026;43.780;25.948;2023-05-01T11:41:46;101195.50;;;19.88;58.62
45285;BME280;31026;43.780;25.948;2023-05-01T11:44:15;101192.75;;;19.78;58.69
45285;BME280;31026;43.780;25.948;2023-05-01T11:46:44;101208.84;;;19.78;59.25
45285;BME280;31026;43.780;25.948;2023-05-01T11:49:12;101212.25;;;19.80;58.97
45285;BME280;31026;43.780;25.948;2023-05-01T11:51:41;101212.03;;;19.93;58.45
45285;BME280;31026;43.780;25.948;2023-05-01T11:54:09;101186.00;;;19.84;58.80
45285;BME280;31026;43.780;25.948;2023-05-01T11:56:41;101195.16;;;19.81;59.14
45285;BME280;31026;43.780;25.948;2023-05-01T11:59:10;101187.38;;;19.78;59.36
45285;BME280;31026;43.780;25.948;2023-05-01T12:01:40;101185.72;;;19.87;59.34
45285;BME280;31026;43.780;25.948;2023-05-01T12:04:09;101187.22;;;20.01;59.32
45285;BME280;31026;43.780;25.948;2023-05-01T12:06:38;101172.84;;;20.02;59.68
45285;BME280;31026;43.780;25.948;2023-05-01T12:09:08;101183.91;;;20.09;59.26
45285;BME280;31026;43.780;25.948;2023-05-01T12:11:37;101185.13;;;20.25;58.84
45285;BME280;31026;43.780;25.948;2023-05-01T12:14:09;101183.31;;;20.05;58.67
45285;BME280;31026;43.780;25.948;2023-05-01T12:16:37;101186.97;;;20.04;57.74
45285;BME280;31026;43.780;25.948;2023-05-01T12:19:07;101172.19;;;19.89;57.81
45285;BME280;31026;43.780;25.948;2023-05-01T12:21:36;101182.25;;;19.75;51.62
45285;BME280;31026;43.780;25.948;2023-05-01T12:24:08;101179.09;;;19.70;46.46
45285;BME280;31026;43.780;25.948;2023-05-01T12:26:36;101159.16;;;19.52;48.86
45285;BME280;31026;43.780;25.948;2023-05-01T12:29:05;101175.03;;;19.55;43.80
45285;BME280;31026;43.780;25.948;2023-05-01T12:31:43;101176.75;;;19.56;43.43
45285;BME280;31026;43.780;25.948;2023-05-01T12:34:12;101179.88;;;19.61;41.51
45285;BME280;31026;43.780;25.948;2023-05-01T12:36:41;101164.03;;;19.58;42.37
45285;BME280;31026;43.780;25.948;2023-05-01T12:39:09;101174.78;;;19.58;42.71
45285;BME280;31026;43.780;25.948;2023-05-01T12:41:39;101158.09;;;19.54;46.58
45285;BME280;31026;43.780;25.948;2023-05-01T12:44:17;101162.84;;;19.51;44.64
45285;BME280;31026;43.780;25.948;2023-05-01T12:46:54;101162.25;;;19.47;44.53
45285;BME280;31026;43.780;25.948;2023-05-01T12:49:23;101170.38;;;19.57;43.21
45285;BME280;31026;43.780;25.948;2023-05-01T12:51:52;101160.38;;;19.59;42.29
45285;BME280;31026;43.780;25.948;2023-05-01T12:54:22;101152.44;;;19.57;43.11
45285;BME280;31026;43.780;25.948;2023-05-01T12:56:51;101173.66;;;19.60;43.49
45285;BME280;31026;43.780;25.948;2023-05-01T12:59:20;101155.47;;;19.64;41.77
45285;BME280;31026;43.780;25.948;2023-05-01T13:01:58;101148.44;;;19.52;41.60
45285;BME280;31026;43.780;25.948;2023-05-01T13:04:27;101144.31;;;19.47;43.66
45285;BME280;31026;43.780;25.948;2023-05-01T13:06:55;101157.00;;;19.45;44.47
45285;BME280;31026;43.780;25.948;2023-05-01T13:09:24;101151.53;;;19.47;42.27
45285;BME280;31026;43.780;25.948;2023-05-01T13:11:58;101146.56;;;19.42;43.64